createdAt,value
2018-05-10T00:01:04.933Z,18.40
2018-05-10T00:03:33.353Z,18.10
2018-05-10T00:06:00.887Z,18.10
2018-05-10T00:08:29.165Z,18.10
2018-05-10T00:10:56.695Z,18.10
2018-05-10T00:13:25.795Z,18.00
2018-05-10T00:15:53.323Z,18.00
2018-05-10T00:18:21.597Z,17.90
2018-05-10T00:20:49.130Z,17.80
2018-05-10T00:23:16.644Z,17.80
2018-05-10T00:25:44.945Z,17.70
2018-05-10T00:28:13.217Z,17.70
2018-05-10T00:30:40.762Z,17.70
2018-05-10T00:33:08.269Z,17.60
2018-05-10T00:35:36.768Z,17.50
2018-05-10T00:38:05.046Z,17.40
2018-05-10T00:40:33.345Z,17.40
2018-05-10T00:43:01.643Z,17.40
2018-05-10T00:45:29.153Z,17.40
2018-05-10T00:47:56.682Z,17.40
2018-05-10T00:50:24.189Z,17.30
2018-05-10T00:52:51.713Z,17.20
2018-05-10T00:55:20.035Z,17.20
2018-05-10T00:57:48.299Z,17.10
2018-05-10T01:00:15.847Z,17.10
2018-05-10T01:02:44.116Z,17.10
2018-05-10T01:05:11.826Z,17.00
2018-05-10T01:07:40.117Z,17.00
2018-05-10T01:10:07.634Z,16.90
2018-05-10T01:12:35.157Z,16.90
2018-05-10T01:15:02.665Z,16.90
2018-05-10T01:17:30.193Z,16.80
2018-05-10T01:19:58.469Z,16.60
2018-05-10T01:22:26.741Z,16.60
2018-05-10T01:24:54.278Z,16.60
2018-05-10T01:27:21.785Z,16.60
2018-05-10T01:29:49.312Z,16.50
2018-05-10T01:32:16.813Z,16.50
2018-05-10T01:34:56.365Z,16.40
2018-05-10T01:37:23.875Z,16.40
2018-05-10T01:39:52.145Z,16.30
2018-05-10T01:42:19.679Z,16.30
2018-05-10T01:44:47.185Z,16.20
2018-05-10T01:47:14.722Z,16.20
2018-05-10T01:49:42.230Z,16.20
2018-05-10T01:52:10.522Z,16.10
2018-05-10T01:54:38.798Z,16.10
2018-05-10T01:57:06.929Z,16.10
2018-05-10T01:59:34.453Z,16.10
2018-05-10T02:02:01.966Z,16.10
2018-05-10T02:04:29.500Z,16.00
2018-05-10T02:06:57.769Z,16.00
2018-05-10T02:09:25.858Z,16.00
2018-05-10T02:11:53.366Z,15.90
2018-05-10T02:14:21.533Z,15.90
2018-05-10T02:16:49.880Z,15.90
2018-05-10T02:19:17.382Z,15.90
2018-05-10T02:21:44.906Z,15.90
2018-05-10T02:24:12.408Z,15.80
2018-05-10T02:26:40.049Z,15.80
2018-05-10T02:29:07.557Z,15.80
2018-05-10T02:31:35.088Z,15.80
2018-05-10T02:34:02.625Z,15.70
2018-05-10T02:36:30.920Z,15.70
2018-05-10T02:38:59.210Z,15.60
2018-05-10T02:41:26.717Z,15.60
2018-05-10T02:43:54.253Z,15.60
2018-05-10T02:46:21.757Z,15.50
2018-05-10T02:48:49.265Z,15.50
2018-05-10T02:51:17.553Z,15.40
2018-05-10T02:53:45.831Z,15.40
2018-05-10T02:56:13.353Z,15.40
2018-05-10T02:58:40.858Z,15.30
2018-05-10T03:01:08.408Z,15.30
2018-05-10T03:03:35.913Z,15.30
2018-05-10T03:06:03.422Z,15.20
2018-05-10T03:08:30.946Z,15.20
2018-05-10T03:10:58.449Z,15.20
2018-05-10T03:13:26.733Z,15.00
2018-05-10T03:15:55.007Z,15.10
2018-05-10T03:18:22.539Z,15.10
2018-05-10T03:20:50.045Z,15.10
2018-05-10T03:23:18.349Z,15.10
2018-05-10T03:25:46.642Z,15.00
2018-05-10T03:28:15.547Z,15.00
2018-05-10T03:30:43.838Z,14.90
2018-05-10T03:33:11.404Z,14.90
2018-05-10T03:35:38.908Z,14.90
2018-05-10T03:38:06.417Z,14.90
2018-05-10T03:40:33.935Z,14.90
2018-05-10T03:43:01.463Z,14.90
2018-05-10T03:45:28.985Z,14.90
2018-05-10T03:47:56.511Z,14.80
2018-05-10T03:50:24.792Z,14.70
2018-05-10T03:52:52.321Z,14.70
2018-05-10T03:55:19.845Z,14.60
2018-05-10T03:57:48.117Z,14.50
2018-05-10T04:00:15.645Z,14.50
2018-05-10T04:05:58.761Z,14.50
2018-05-10T04:08:38.225Z,14.40
2018-05-10T04:11:18.426Z,14.30
2018-05-10T04:13:45.977Z,14.30
2018-05-10T04:16:14.249Z,14.30
2018-05-10T04:18:43.870Z,14.30
2018-05-10T04:21:12.162Z,14.20
2018-05-10T04:23:40.437Z,14.20
2018-05-10T04:26:07.966Z,14.20
2018-05-10T04:28:35.477Z,14.30
2018-05-10T04:31:03.026Z,14.20
2018-05-10T04:33:30.533Z,14.20
2018-05-10T04:35:58.819Z,14.20
2018-05-10T04:38:27.109Z,14.20
2018-05-10T04:40:55.381Z,14.20
2018-05-10T04:43:22.909Z,14.10
2018-05-10T04:45:50.427Z,14.20
2018-05-10T04:48:18.729Z,14.20
2018-05-10T04:50:47.001Z,14.20
2018-05-10T04:53:14.505Z,14.20
2018-05-10T04:55:42.041Z,14.20
2018-05-10T04:58:09.549Z,14.20
2018-05-10T05:00:37.089Z,14.20
2018-05-10T05:03:04.597Z,14.20
2018-05-10T05:05:32.138Z,14.20
2018-05-10T05:08:00.582Z,14.30
2018-05-10T05:10:28.104Z,14.20
2018-05-10T05:12:56.425Z,14.30
2018-05-10T05:15:25.532Z,14.30
2018-05-10T05:17:53.169Z,14.30
2018-05-10T05:20:21.438Z,14.30
2018-05-10T05:22:48.974Z,14.30
2018-05-10T05:25:16.477Z,14.30
2018-05-10T05:27:44.006Z,14.30
2018-05-10T05:30:11.529Z,14.30
2018-05-10T05:32:39.817Z,14.40
2018-05-10T05:35:08.121Z,14.40
2018-05-10T05:37:35.653Z,14.40
2018-05-10T05:40:03.189Z,14.40
2018-05-10T05:42:30.703Z,14.40
2018-05-10T05:44:58.230Z,14.50
2018-05-10T05:47:25.763Z,14.60
2018-05-10T05:49:54.110Z,14.70
2018-05-10T05:52:22.341Z,14.60
2018-05-10T05:54:50.609Z,14.60
2018-05-10T05:57:18.141Z,14.50
2018-05-10T05:59:45.645Z,14.60
2018-05-10T06:02:13.150Z,14.60
2018-05-10T06:04:40.682Z,14.60
2018-05-10T06:07:08.184Z,14.50
2018-05-10T06:09:36.481Z,14.50
2018-05-10T06:12:04.754Z,14.50
2018-05-10T06:14:33.049Z,14.50
2018-05-10T06:17:01.317Z,14.50
2018-05-10T06:19:29.577Z,14.40
2018-05-10T06:21:57.105Z,14.50
2018-05-10T06:24:24.621Z,14.40
2018-05-10T06:26:52.154Z,14.50
2018-05-10T06:29:19.657Z,14.60
2018-05-10T06:31:47.198Z,14.80
2018-05-10T06:34:14.700Z,14.90
2018-05-10T06:36:42.197Z,15.00
2018-05-10T06:39:09.718Z,15.10
2018-05-10T06:41:38.141Z,15.10
2018-05-10T06:44:06.362Z,15.30
2018-05-10T06:46:34.639Z,15.40
2018-05-10T06:49:02.180Z,15.40
2018-05-10T06:51:29.681Z,15.30
2018-05-10T06:53:57.186Z,15.40
2018-05-10T06:56:24.709Z,15.40
2018-05-10T06:58:52.213Z,15.40
2018-05-10T07:01:20.549Z,15.60
2018-05-10T07:03:48.054Z,15.60
2018-05-10T07:06:15.641Z,15.70
2018-05-10T07:08:43.905Z,15.90
2018-05-10T07:11:11.406Z,15.80
2018-05-10T07:13:38.968Z,15.90
2018-05-10T07:16:07.234Z,16.00
2018-05-10T07:18:34.757Z,16.00
2018-05-10T07:21:02.262Z,16.00
2018-05-10T07:23:29.821Z,16.00
2018-05-10T07:25:57.326Z,16.20
2018-05-10T07:28:25.593Z,16.20
2018-05-10T07:30:53.125Z,16.20
2018-05-10T07:33:20.626Z,16.20
2018-05-10T07:35:48.150Z,16.30
2018-05-10T07:38:15.667Z,16.40
2018-05-10T07:40:43.206Z,16.30
2018-05-10T07:43:10.709Z,16.50
2018-05-10T07:45:38.209Z,16.50
2018-05-10T07:48:06.503Z,16.40
2018-05-10T07:50:34.773Z,16.30
2018-05-10T07:53:02.298Z,16.30
2018-05-10T07:55:29.797Z,16.30
2018-05-10T07:57:57.607Z,16.30
2018-05-10T08:00:25.881Z,16.40
2018-05-10T08:02:53.386Z,16.40
2018-05-10T08:05:20.910Z,16.40
2018-05-10T08:07:49.009Z,16.40
2018-05-10T08:10:16.533Z,16.50
2018-05-10T08:12:44.029Z,16.40
2018-05-10T08:15:11.561Z,16.50
2018-05-10T08:17:39.065Z,16.70
2018-05-10T08:20:06.592Z,16.80
2018-05-10T08:22:34.122Z,16.90
2018-05-10T08:25:01.625Z,16.90
2018-05-10T08:27:48.240Z,16.90
2018-05-10T08:30:15.803Z,16.90
2018-05-10T08:32:43.286Z,16.90
2018-05-10T08:35:10.788Z,17.10
2018-05-10T08:37:38.306Z,17.30
2018-05-10T08:40:06.594Z,17.60
2018-05-10T08:42:34.866Z,17.60
2018-05-10T08:45:03.274Z,17.40
2018-05-10T08:47:30.698Z,17.40
2018-05-10T08:49:58.245Z,17.30
2018-05-10T08:52:25.772Z,17.30
2018-05-10T08:54:53.277Z,17.20
2018-05-10T08:57:20.805Z,17.10
2018-05-10T08:59:48.324Z,17.00
2018-05-10T09:02:15.831Z,16.90
2018-05-10T09:04:43.357Z,16.70
2018-05-10T09:07:10.918Z,16.60
2018-05-10T09:09:38.465Z,16.50
2018-05-10T09:12:05.979Z,16.60
2018-05-10T09:14:33.478Z,16.70
2018-05-10T09:17:01.013Z,17.00
2018-05-10T09:19:28.510Z,17.10
2018-05-10T09:21:56.037Z,17.40
2018-05-10T09:24:24.300Z,17.60
2018-05-10T09:26:51.811Z,17.60
2018-05-10T09:29:19.503Z,17.60
2018-05-10T09:31:47.019Z,17.80
2018-05-10T09:34:14.553Z,18.00
2018-05-10T09:36:42.058Z,18.00
2018-05-10T09:39:09.603Z,17.70
2018-05-10T09:41:37.109Z,17.60
2018-05-10T09:44:04.614Z,17.60
2018-05-10T09:46:32.146Z,17.60
2018-05-10T09:48:59.657Z,17.80
2018-05-10T09:51:27.168Z,17.80
2018-05-10T09:53:54.721Z,17.70
2018-05-10T09:56:22.273Z,17.50
2018-05-10T09:58:49.842Z,17.60
2018-05-10T10:01:17.345Z,17.60
2018-05-10T10:03:44.848Z,17.60
2018-05-10T10:06:13.161Z,17.30
2018-05-10T10:08:40.759Z,17.30
2018-05-10T10:11:08.310Z,17.30
2018-05-10T10:13:35.819Z,17.30
2018-05-10T10:16:03.331Z,17.30
2018-05-10T10:18:31.784Z,17.30
2018-05-10T10:20:59.309Z,17.30
2018-05-10T10:23:26.855Z,17.20
2018-05-10T10:25:55.118Z,17.00
2018-05-10T10:28:22.635Z,16.90
2018-05-10T10:30:50.925Z,16.60
2018-05-10T10:33:19.194Z,16.50
2018-05-10T10:35:46.721Z,16.50
2018-05-10T10:38:14.253Z,16.40
2018-05-10T10:40:42.511Z,15.70
2018-05-10T10:43:10.039Z,15.70
2018-05-10T10:45:37.577Z,15.60
2018-05-10T10:48:05.873Z,15.70
2018-05-10T10:50:34.143Z,15.70
2018-05-10T10:53:02.423Z,15.70
2018-05-10T10:55:29.959Z,15.70
2018-05-10T10:57:57.462Z,15.90
2018-05-10T11:00:25.006Z,16.20
2018-05-10T11:02:52.511Z,16.00
2018-05-10T11:05:20.014Z,16.10
2018-05-10T11:07:47.546Z,16.10
2018-05-10T11:10:15.048Z,16.10
2018-05-10T11:12:42.609Z,15.90
2018-05-10T11:15:10.905Z,15.50
2018-05-10T11:17:38.413Z,15.50
2018-05-10T11:20:05.959Z,15.40
2018-05-10T11:22:33.532Z,15.20
2018-05-10T11:25:01.005Z,15.20
2018-05-10T11:27:28.505Z,15.10
2018-05-10T11:29:56.821Z,15.10
2018-05-10T11:32:24.385Z,15.10
2018-05-10T11:34:51.886Z,15.10
2018-05-10T11:37:19.419Z,14.90
2018-05-10T11:39:46.933Z,15.00
2018-05-10T11:42:14.458Z,15.10
2018-05-10T11:44:41.970Z,15.10
2018-05-10T11:47:09.494Z,15.00
2018-05-10T11:49:37.009Z,15.00
2018-05-10T11:52:04.521Z,14.90
2018-05-10T11:54:32.051Z,14.90
2018-05-10T11:56:59.561Z,14.90
2018-05-10T11:59:27.203Z,14.80
2018-05-10T12:01:54.709Z,14.80
2018-05-10T12:04:22.250Z,14.90
2018-05-10T12:06:49.758Z,14.80
2018-05-10T12:09:17.274Z,14.70
2018-05-10T12:11:44.807Z,14.70
2018-05-10T12:14:12.327Z,14.80
2018-05-10T12:16:39.857Z,14.80
2018-05-10T12:19:07.419Z,14.90
2018-05-10T12:21:34.924Z,15.00
2018-05-10T12:24:02.450Z,15.00
2018-05-10T12:26:29.961Z,15.10
2018-05-10T12:28:57.517Z,15.10
2018-05-10T12:31:25.796Z,15.10
2018-05-10T12:33:53.347Z,15.10
2018-05-10T12:36:21.702Z,15.10
2018-05-10T12:38:49.253Z,15.00
2018-05-10T12:41:17.545Z,14.90
2018-05-10T12:43:45.090Z,14.80
2018-05-10T12:46:12.614Z,14.90
2018-05-10T12:48:40.155Z,14.80
2018-05-10T12:51:07.682Z,14.80
2018-05-10T12:53:35.194Z,14.80
2018-05-10T12:56:02.854Z,14.60
2018-05-10T12:58:30.286Z,14.60
2018-05-10T13:00:58.562Z,14.60
2018-05-10T13:03:26.094Z,14.50
2018-05-10T13:05:54.365Z,14.60
2018-05-10T13:08:22.682Z,14.70
2018-05-10T13:10:50.191Z,14.70
2018-05-10T13:13:17.789Z,14.80
2018-05-10T13:15:45.274Z,14.90
2018-05-10T13:18:13.583Z,15.00
2018-05-10T13:20:41.104Z,15.00
2018-05-10T13:23:08.650Z,15.10
2018-05-10T13:25:36.182Z,15.20
2018-05-10T13:28:03.698Z,15.20
2018-05-10T13:30:31.230Z,15.30
2018-05-10T13:32:58.791Z,15.30
2018-05-10T13:35:27.099Z,15.60
2018-05-10T13:37:54.662Z,15.60
2018-05-10T13:40:22.189Z,15.80
2018-05-10T13:42:49.730Z,15.80
2018-05-10T13:45:17.242Z,16.00
2018-05-10T13:47:44.828Z,16.00
2018-05-10T13:50:13.101Z,16.10
2018-05-10T13:52:40.641Z,16.10
2018-05-10T13:55:08.298Z,16.10
2018-05-10T13:57:35.816Z,16.10
2018-05-10T14:00:03.359Z,16.10
2018-05-10T14:02:31.630Z,16.10
2018-05-10T14:04:59.195Z,16.10
2018-05-10T14:07:26.722Z,16.10
2018-05-10T14:09:55.057Z,16.00
2018-05-10T14:12:22.669Z,16.00
2018-05-10T14:14:50.179Z,16.00
2018-05-10T14:17:18.232Z,15.90
2018-05-10T14:19:45.741Z,15.80
2018-05-10T14:22:13.269Z,15.80
2018-05-10T14:24:40.782Z,15.80
2018-05-10T14:27:08.329Z,15.80
2018-05-10T14:29:36.605Z,15.80
2018-05-10T14:32:04.881Z,15.80
2018-05-10T14:34:32.411Z,15.80
2018-05-10T14:36:59.920Z,15.70
2018-05-10T14:39:27.515Z,15.80
2018-05-10T14:41:55.741Z,15.90
2018-05-10T14:44:23.292Z,15.90
2018-05-10T14:46:50.808Z,16.00
2018-05-10T14:49:18.319Z,16.20
2018-05-10T14:51:46.614Z,16.30
2018-05-10T14:54:14.127Z,16.40
2018-05-10T14:56:41.655Z,16.40
2018-05-10T14:59:09.153Z,16.50
2018-05-10T15:01:36.691Z,16.50
2018-05-10T15:04:04.209Z,16.50
2018-05-10T15:06:32.550Z,16.70
2018-05-10T15:09:00.838Z,17.00
2018-05-10T15:11:29.106Z,17.60
2018-05-10T15:13:57.402Z,18.30
2018-05-10T15:16:25.678Z,18.90
2018-05-10T15:18:53.223Z,18.80
2018-05-10T15:21:20.735Z,19.20
2018-05-10T15:23:49.007Z,19.80
2018-05-10T15:26:16.566Z,19.80
2018-05-10T15:28:44.083Z,19.70
2018-05-10T15:31:11.611Z,20.00
2018-05-10T15:33:39.114Z,20.50
2018-05-10T15:36:06.669Z,20.70
2018-05-10T15:38:34.946Z,21.10
2018-05-10T15:41:02.457Z,21.00
2018-05-10T15:43:29.996Z,21.10
2018-05-10T15:45:58.274Z,21.50
2018-05-10T15:48:25.803Z,21.50
2018-05-10T15:50:53.313Z,21.80
2018-05-10T15:53:20.861Z,21.60
2018-05-10T15:55:48.365Z,21.60
2018-05-10T15:58:15.874Z,21.30
2018-05-10T16:00:43.397Z,21.20
2018-05-10T16:03:10.926Z,20.40
2018-05-10T16:05:38.489Z,20.00
2018-05-10T16:08:05.992Z,20.00
2018-05-10T16:10:33.530Z,20.20
2018-05-10T16:13:01.035Z,20.20
2018-05-10T16:15:28.538Z,20.30
2018-05-10T16:17:56.830Z,20.60
2018-05-10T16:20:25.097Z,20.40
2018-05-10T16:22:52.621Z,20.40
2018-05-10T16:25:20.126Z,20.20
2018-05-10T16:27:47.659Z,20.20
2018-05-10T16:30:15.167Z,20.00
2018-05-10T16:32:42.671Z,19.80
2018-05-10T16:35:10.199Z,19.40
2018-05-10T16:37:37.697Z,19.10
2018-05-10T16:40:06.000Z,18.70
2018-05-10T16:42:34.273Z,18.50
2018-05-10T16:45:02.595Z,18.30
2018-05-10T16:47:30.115Z,18.30
2018-05-10T16:49:57.619Z,18.10
2018-05-10T16:52:25.913Z,17.80
2018-05-10T16:54:53.415Z,17.80
2018-05-10T16:57:20.941Z,17.80
2018-05-10T16:59:49.210Z,17.50
2018-05-10T17:02:16.746Z,17.50
2018-05-10T17:04:44.297Z,17.40
2018-05-10T17:07:11.810Z,17.40
2018-05-10T17:09:39.333Z,17.30
2018-05-10T17:12:06.840Z,17.20
2018-05-10T17:14:34.949Z,17.20
2018-05-10T17:17:02.466Z,17.10
2018-05-10T17:19:30.002Z,17.00
2018-05-10T17:21:58.285Z,17.00
2018-05-10T17:24:26.590Z,16.90
2018-05-10T17:26:54.754Z,16.90
2018-05-10T17:29:23.031Z,16.90
2018-05-10T17:31:50.562Z,16.90
2018-05-10T17:34:18.117Z,16.90
2018-05-10T17:36:45.672Z,16.90
2018-05-10T17:39:13.943Z,16.90
2018-05-10T17:41:42.275Z,16.90
2018-05-10T17:44:09.755Z,16.80
2018-05-10T17:46:37.278Z,16.90
2018-05-10T17:49:05.566Z,16.80
2018-05-10T17:51:34.341Z,16.70
2018-05-10T17:54:01.875Z,16.70
2018-05-10T17:56:29.378Z,16.60
2018-05-10T17:58:56.877Z,16.50
2018-05-10T18:01:25.194Z,16.50
2018-05-10T18:03:52.693Z,16.50
2018-05-10T18:06:20.431Z,16.50
2018-05-10T18:08:47.936Z,16.30
2018-05-10T18:11:15.470Z,16.30
2018-05-10T18:13:43.018Z,16.30
2018-05-10T18:16:10.506Z,16.30
2018-05-10T18:18:38.906Z,16.20
2018-05-10T18:21:06.418Z,16.20
2018-05-10T18:23:33.944Z,16.10
2018-05-10T18:26:01.536Z,16.10
2018-05-10T18:28:29.129Z,16.00
2018-05-10T18:30:56.643Z,16.00
2018-05-10T18:33:24.917Z,15.90
2018-05-10T18:35:52.441Z,15.90
2018-05-10T18:38:19.946Z,15.80
2018-05-10T18:40:47.498Z,15.70
2018-05-10T18:43:15.154Z,15.70
2018-05-10T18:45:42.702Z,15.60
2018-05-10T18:48:10.234Z,15.60
2018-05-10T18:50:37.774Z,15.60
2018-05-10T18:53:05.317Z,15.50
2018-05-10T18:55:32.823Z,15.40
2018-05-10T18:58:00.341Z,15.30
2018-05-10T19:00:28.610Z,15.30
2018-05-10T19:02:56.190Z,15.20
2018-05-10T19:05:24.471Z,15.10
2018-05-10T19:07:52.749Z,15.10
2018-05-10T19:10:20.298Z,15.10
2018-05-10T19:12:47.801Z,15.00
2018-05-10T19:15:15.348Z,15.10
2018-05-10T19:17:42.841Z,15.00
2018-05-10T19:20:10.378Z,15.00
2018-05-10T19:22:37.919Z,14.80
2018-05-10T19:25:05.421Z,14.80
2018-05-10T19:27:32.947Z,14.70
2018-05-10T19:30:00.453Z,14.70
2018-05-10T19:32:27.973Z,14.60
2018-05-10T19:34:56.238Z,14.50
2018-05-10T19:37:23.769Z,14.50
2018-05-10T19:39:51.274Z,14.40
2018-05-10T19:42:18.778Z,14.30
2018-05-10T19:44:47.100Z,14.20
2018-05-10T19:47:14.605Z,14.20
2018-05-10T19:49:42.129Z,14.10
2018-05-10T19:52:09.637Z,14.20
2018-05-10T19:54:37.171Z,14.00
2018-05-10T19:57:04.759Z,13.90
2018-05-10T19:59:32.217Z,13.90
2018-05-10T20:01:59.743Z,13.80
2018-05-10T20:04:27.253Z,13.70
2018-05-10T20:06:54.780Z,13.70
2018-05-10T20:09:22.293Z,13.60
2018-05-10T20:11:49.842Z,13.60
2018-05-10T20:14:18.109Z,13.50
2018-05-10T20:16:45.613Z,13.50
2018-05-10T20:19:13.146Z,13.50
2018-05-10T20:21:40.655Z,13.40
2018-05-10T20:24:08.217Z,13.40
2018-05-10T20:26:35.695Z,13.40
2018-05-10T20:29:03.233Z,13.30
2018-05-10T20:31:30.734Z,13.40
2018-05-10T20:33:58.241Z,13.40
2018-05-10T20:36:25.764Z,13.40
2018-05-10T20:38:54.029Z,13.40
2018-05-10T20:41:22.361Z,13.40
2018-05-10T20:43:49.861Z,13.40
2018-05-10T20:46:17.397Z,13.40
2018-05-10T20:48:44.913Z,13.30
2018-05-10T20:51:12.428Z,13.20
2018-05-10T20:53:39.957Z,13.20
2018-05-10T20:56:07.457Z,13.10
2018-05-10T20:58:35.746Z,13.00
2018-05-10T21:01:04.017Z,13.00
2018-05-10T21:03:31.589Z,13.00
2018-05-10T21:05:59.075Z,13.00
2018-05-10T21:08:27.337Z,12.90
2018-05-10T21:10:54.858Z,12.90
2018-05-10T21:13:22.358Z,12.90
2018-05-10T21:15:49.890Z,12.80
2018-05-10T21:18:17.395Z,12.80
2018-05-10T21:20:44.933Z,12.70
2018-05-10T21:23:12.489Z,12.60
2018-05-10T21:25:39.963Z,12.60
2018-05-10T21:28:07.525Z,12.50
2018-05-10T21:30:35.797Z,12.40
2018-05-10T21:33:03.318Z,12.40
2018-05-10T21:35:30.823Z,12.40
2018-05-10T21:37:58.358Z,12.50
2018-05-10T21:40:25.922Z,12.40
2018-05-10T21:42:54.201Z,12.40
2018-05-10T21:45:22.459Z,12.40
2018-05-10T21:47:50.725Z,12.40
2018-05-10T21:50:18.246Z,12.40
2018-05-10T21:52:45.745Z,12.40
2018-05-10T21:55:13.748Z,12.30
2018-05-10T21:57:41.251Z,12.30
2018-05-10T22:00:09.517Z,12.20
2018-05-10T22:02:37.036Z,12.10
2018-05-10T22:05:04.534Z,12.10
2018-05-10T22:07:32.058Z,12.10
2018-05-10T22:09:59.558Z,12.00
2018-05-10T22:12:27.093Z,12.00
2018-05-10T22:14:54.598Z,12.00
2018-05-10T22:17:22.105Z,12.10
2018-05-10T22:19:49.634Z,12.00
2018-05-10T22:22:17.165Z,12.10
2018-05-10T22:24:44.697Z,12.00
2018-05-10T22:27:12.196Z,12.00
2018-05-10T22:29:40.494Z,11.90
2018-05-10T22:32:08.767Z,11.90
2018-05-10T22:34:36.264Z,11.90
2018-05-10T22:37:03.786Z,11.90
2018-05-10T22:39:31.289Z,11.90
2018-05-10T22:41:59.674Z,11.80
2018-05-10T22:44:27.971Z,11.80
2018-05-10T22:46:55.493Z,11.80
2018-05-10T22:49:23.281Z,11.70
2018-05-10T22:51:50.786Z,11.70
2018-05-10T22:54:19.078Z,11.60
2018-05-10T22:56:47.349Z,11.50
2018-05-10T22:59:14.878Z,11.50
2018-05-10T23:01:42.382Z,11.60
2018-05-10T23:04:09.927Z,11.50
2018-05-10T23:06:37.442Z,11.40
2018-05-10T23:09:05.709Z,11.40
2018-05-10T23:11:33.233Z,11.30
2018-05-10T23:14:00.738Z,11.30
2018-05-10T23:16:28.266Z,11.30
2018-05-10T23:18:55.779Z,11.30
2018-05-10T23:21:23.333Z,11.20
2018-05-10T23:23:50.833Z,11.20
2018-05-10T23:26:18.340Z,11.10
2018-05-10T23:28:45.863Z,11.10
2018-05-10T23:31:13.368Z,11.10
2018-05-10T23:33:41.654Z,11.00
2018-05-10T23:36:09.922Z,11.00
2018-05-10T23:38:37.463Z,11.00
2018-05-10T23:41:04.977Z,10.90
2018-05-10T23:43:33.246Z,10.90
2018-05-10T23:46:00.769Z,10.90
2018-05-10T23:48:28.268Z,10.90
2018-05-10T23:50:55.795Z,10.90
2018-05-10T23:53:23.301Z,10.90
2018-05-10T23:55:50.839Z,10.80
2018-05-10T23:58:18.346Z,10.80
